sensor_id;sensor_type;location;lat;lon;timestamp;pressure;altitude;pressure_sealevel;temperature;humidity
35045;BME280;21231;48.394;34.964;2022-10-31T14:52:17;100109.25;;;5.52;100.00
35045;BME280;21231;48.394;34.964;2022-10-31T14:55:07;100108.31;;;5.39;100.00
35045;BME280;21231;48.394;34.964;2022-10-31T14:58:00;100129.19;;;5.34;100.00
35045;BME280;21231;48.394;34.964;2022-10-31T15:00:48;100133.84;;;5.27;100.00
35045;BME280;21231;48.394;34.964;2022-10-31T15:03:40;100133.69;;;5.14;100.00
35045;BME280;21231;48.394;34.964;2022-10-31T15:06:54;100143.47;;;4.97;100.00
35045;BME280;21231;48.394;34.964;2022-10-31T15:09:43;100147.97;;;4.89;100.00
35045;BME280;21231;48.394;34.964;2022-10-31T15:12:32;100148.94;;;4.79;100.00
35045;BME280;21231;48.394;34.964;2022-10-31T15:15:24;100154.84;;;4.68;100.00
35045;BME280;21231;48.394;34.964;2022-10-31T15:18:22;100163.03;;;4.64;100.00
35045;BME280;21231;48.394;34.964;2022-10-31T15:21:09;100162.38;;;4.66;100.00
35045;BME280;21231;48.394;34.964;2022-10-31T15:23:59;100178.22;;;4.62;100.00
35045;BME280;21231;48.394;34.964;2022-10-31T15:26:51;100180.13;;;4.65;100.00
35045;BME280;21231;48.394;34.964;2022-10-31T15:29:47;100186.66;;;4.61;100.00
35045;BME280;21231;48.394;34.964;2022-10-31T15:32:36;100197.50;;;4.59;100.00
35045;BME280;21231;48.394;34.964;2022-10-31T15:35:42;100195.75;;;4.47;100.00
35045;BME280;21231;48.394;34.964;2022-10-31T15:38:29;100203.19;;;4.44;100.00
35045;BME280;21231;48.394;34.964;2022-10-31T15:44:37;100222.06;;;4.36;100.00
35045;BME280;21231;48.394;34.964;2022-10-31T15:47:28;100223.34;;;4.20;100.00
35045;BME280;21231;48.394;34.964;2022-10-31T15:50:21;100230.75;;;4.07;100.00
35045;BME280;21231;48.394;34.964;2022-10-31T15:53:25;100231.66;;;3.97;100.00
35045;BME280;21231;48.394;34.964;2022-10-31T15:56:18;100232.03;;;3.91;100.00
35045;BME280;21231;48.394;34.964;2022-10-31T15:59:17;100235.47;;;3.81;100.00
35045;BME280;21231;48.394;34.964;2022-10-31T16:02:10;100246.06;;;3.86;100.00
35045;BME280;21231;48.394;34.964;2022-10-31T16:04:59;100253.69;;;3.96;100.00
35045;BME280;21231;48.394;34.964;2022-10-31T16:07:50;100262.16;;;4.06;100.00
35045;BME280;21231;48.394;34.964;2022-10-31T16:10:37;100258.81;;;4.07;100.00
35045;BME280;21231;48.394;34.964;2022-10-31T16:13:26;100260.59;;;4.08;100.00
35045;BME280;21231;48.394;34.964;2022-10-31T16:16:15;100255.75;;;4.00;100.00
35045;BME280;21231;48.394;34.964;2022-10-31T16:19:23;100270.03;;;3.98;100.00
35045;BME280;21231;48.394;34.964;2022-10-31T16:22:12;100284.56;;;3.99;100.00
35045;BME280;21231;48.394;34.964;2022-10-31T16:25:01;100281.66;;;3.95;100.00
35045;BME280;21231;48.394;34.964;2022-10-31T16:27:51;100273.69;;;3.81;100.00
35045;BME280;21231;48.394;34.964;2022-10-31T16:30:42;100288.47;;;3.65;100.00
35045;BME280;21231;48.394;34.964;2022-10-31T16:33:35;100294.53;;;3.46;100.00
35045;BME280;21231;48.394;34.964;2022-10-31T16:39:23;100295.03;;;3.12;100.00
35045;BME280;21231;48.394;34.964;2022-10-31T16:42:09;100301.03;;;3.13;100.00
35045;BME280;21231;48.394;34.964;2022-10-31T16:44:56;100308.84;;;3.25;100.00
35045;BME280;21231;48.394;34.964;2022-10-31T16:47:42;100302.28;;;3.37;100.00
35045;BME280;21231;48.394;34.964;2022-10-31T16:50:28;100307.47;;;3.28;100.00
35045;BME280;21231;48.394;34.964;2022-10-31T16:53:14;100305.84;;;3.39;100.00
35045;BME280;21231;48.394;34.964;2022-10-31T16:56:03;100302.16;;;3.46;100.00
35045;BME280;21231;48.394;34.964;2022-10-31T16:58:49;100308.03;;;3.45;100.00
35045;BME280;21231;48.394;34.964;2022-10-31T17:01:35;100312.63;;;3.49;100.00
35045;BME280;21231;48.394;34.964;2022-10-31T17:04:22;100317.75;;;3.49;100.00
35045;BME280;21231;48.394;34.964;2022-10-31T17:07:08;100339.25;;;3.42;100.00
35045;BME280;21231;48.394;34.964;2022-10-31T17:09:54;100334.84;;;3.31;100.00
35045;BME280;21231;48.394;34.964;2022-10-31T17:12:45;100336.06;;;3.15;100.00
35045;BME280;21231;48.394;34.964;2022-10-31T17:15:44;100336.00;;;3.05;100.00
35045;BME280;21231;48.394;34.964;2022-10-31T17:18:31;100332.44;;;3.03;100.00
35045;BME280;21231;48.394;34.964;2022-10-31T17:21:21;100340.75;;;2.91;100.00
35045;BME280;21231;48.394;34.964;2022-10-31T17:24:12;100339.88;;;2.91;100.00
35045;BME280;21231;48.394;34.964;2022-10-31T17:26:58;100344.75;;;2.98;100.00
35045;BME280;21231;48.394;34.964;2022-10-31T17:29:44;100345.84;;;2.91;100.00
35045;BME280;21231;48.394;34.964;2022-10-31T17:32:31;100351.44;;;2.87;100.00
35045;BME280;21231;48.394;34.964;2022-10-31T17:35:18;100354.75;;;2.86;100.00
35045;BME280;21231;48.394;34.964;2022-10-31T17:38:05;100356.31;;;2.75;100.00
35045;BME280;21231;48.394;34.964;2022-10-31T17:40:51;100364.78;;;2.65;100.00
35045;BME280;21231;48.394;34.964;2022-10-31T17:43:37;100365.19;;;2.51;100.00
35045;BME280;21231;48.394;34.964;2022-10-31T17:46:23;100359.66;;;2.46;100.00
35045;BME280;21231;48.394;34.964;2022-10-31T17:49:10;100359.63;;;2.55;100.00
35045;BME280;21231;48.394;34.964;2022-10-31T17:51:57;100364.22;;;2.59;100.00
35045;BME280;21231;48.394;34.964;2022-10-31T17:54:43;100368.56;;;2.60;100.00
35045;BME280;21231;48.394;34.964;2022-10-31T17:57:32;100372.81;;;2.51;100.00
35045;BME280;21231;48.394;34.964;2022-10-31T18:00:21;100374.53;;;2.41;100.00
35045;BME280;21231;48.394;34.964;2022-10-31T18:03:08;100377.56;;;2.28;100.00
35045;BME280;21231;48.394;34.964;2022-10-31T18:05:56;100389.97;;;2.34;100.00
35045;BME280;21231;48.394;34.964;2022-10-31T18:08:38;100393.19;;;2.42;100.00
35045;BME280;21231;48.394;34.964;2022-10-31T18:11:27;100380.72;;;2.54;100.00
35045;BME280;21231;48.394;34.964;2022-10-31T18:14:15;100385.69;;;2.52;100.00
35045;BME280;21231;48.394;34.964;2022-10-31T18:17:01;100378.53;;;2.48;100.00
35045;BME280;21231;48.394;34.964;2022-10-31T18:19:47;100386.47;;;2.42;100.00
35045;BME280;21231;48.394;34.964;2022-10-31T18:22:33;100395.19;;;2.36;100.00
35045;BME280;21231;48.394;34.964;2022-10-31T18:25:19;100401.53;;;2.22;100.00
35045;BME280;21231;48.394;34.964;2022-10-31T18:28:06;100403.53;;;2.15;100.00
35045;BME280;21231;48.394;34.964;2022-10-31T18:30:52;100416.25;;;2.07;100.00
35045;BME280;21231;48.394;34.964;2022-10-31T18:33:38;100421.25;;;1.96;100.00
35045;BME280;21231;48.394;34.964;2022-10-31T18:36:24;100423.03;;;1.88;100.00
35045;BME280;21231;48.394;34.964;2022-10-31T18:39:11;100419.94;;;1.82;100.00
35045;BME280;21231;48.394;34.964;2022-10-31T18:41:57;100420.09;;;1.75;100.00
35045;BME280;21231;48.394;34.964;2022-10-31T18:44:43;100414.91;;;1.64;100.00
35045;BME280;21231;48.394;34.964;2022-10-31T18:47:29;100409.66;;;1.63;100.00
35045;BME280;21231;48.394;34.964;2022-10-31T18:50:15;100420.28;;;1.68;100.00
35045;BME280;21231;48.394;34.964;2022-10-31T18:53:00;100430.88;;;1.72;100.00
35045;BME280;21231;48.394;34.964;2022-10-31T18:55:47;100438.69;;;1.65;100.00
35045;BME280;21231;48.394;34.964;2022-10-31T18:58:35;100432.84;;;1.57;100.00
35045;BME280;21231;48.394;34.964;2022-10-31T19:01:22;100430.28;;;1.57;100.00
35045;BME280;21231;48.394;34.964;2022-10-31T19:04:09;100431.06;;;1.56;100.00
35045;BME280;21231;48.394;34.964;2022-10-31T19:06:55;100437.34;;;1.51;100.00
35045;BME280;21231;48.394;34.964;2022-10-31T19:09:41;100442.88;;;1.47;100.00
35045;BME280;21231;48.394;34.964;2022-10-31T19:12:31;100451.97;;;1.45;100.00
35045;BME280;21231;48.394;34.964;2022-10-31T19:15:17;100455.84;;;1.32;100.00
35045;BME280;21231;48.394;34.964;2022-10-31T19:18:03;100449.44;;;1.27;100.00
35045;BME280;21231;48.394;34.964;2022-10-31T19:20:50;100442.44;;;1.33;100.00
35045;BME280;21231;48.394;34.964;2022-10-31T19:23:36;100449.88;;;1.40;100.00
35045;BME280;21231;48.394;34.964;2022-10-31T19:26:23;100451.81;;;1.43;100.00
35045;BME280;21231;48.394;34.964;2022-10-31T19:29:09;100455.88;;;1.41;100.00
35045;BME280;21231;48.394;34.964;2022-10-31T19:31:55;100462.31;;;1.37;100.00
35045;BME280;21231;48.394;34.964;2022-10-31T19:34:41;100460.50;;;1.36;100.00
35045;BME280;21231;48.394;34.964;2022-10-31T19:37:27;100464.84;;;1.37;100.00
35045;BME280;21231;48.394;34.964;2022-10-31T19:40:13;100466.31;;;1.35;100.00
35045;BME280;21231;48.394;34.964;2022-10-31T19:42:59;100462.28;;;1.29;100.00
35045;BME280;21231;48.394;34.964;2022-10-31T19:45:59;100475.28;;;1.23;100.00
35045;BME280;21231;48.394;34.964;2022-10-31T19:48:45;100477.22;;;1.08;100.00
35045;BME280;21231;48.394;34.964;2022-10-31T19:51:32;100480.78;;;0.92;100.00
35045;BME280;21231;48.394;34.964;2022-10-31T19:54:17;100488.22;;;0.73;100.00
35045;BME280;21231;48.394;34.964;2022-10-31T19:57:03;100495.56;;;0.45;100.00
35045;BME280;21231;48.394;34.964;2022-10-31T19:59:50;100483.38;;;0.16;100.00
35045;BME280;21231;48.394;34.964;2022-10-31T20:02:35;100486.00;;;0.08;100.00
35045;BME280;21231;48.394;34.964;2022-10-31T20:05:22;100488.13;;;0.13;100.00
35045;BME280;21231;48.394;34.964;2022-10-31T20:08:19;100488.94;;;0.29;100.00
35045;BME280;21231;48.394;34.964;2022-10-31T20:11:06;100493.94;;;0.45;100.00
35045;BME280;21231;48.394;34.964;2022-10-31T20:13:58;100500.25;;;0.58;100.00
35045;BME280;21231;48.394;34.964;2022-10-31T20:16:44;100501.13;;;0.58;100.00
35045;BME280;21231;48.394;34.964;2022-10-31T20:19:30;100509.69;;;0.68;100.00
35045;BME280;21231;48.394;34.964;2022-10-31T20:22:17;100507.28;;;0.69;100.00
35045;BME280;21231;48.394;34.964;2022-10-31T20:25:04;100505.16;;;0.56;100.00
35045;BME280;21231;48.394;34.964;2022-10-31T20:27:50;100509.00;;;0.19;100.00
35045;BME280;21231;48.394;34.964;2022-10-31T20:30:36;100528.56;;;-0.05;100.00
35045;BME280;21231;48.394;34.964;2022-10-31T20:33:22;100512.34;;;-0.23;100.00
35045;BME280;21231;48.394;34.964;2022-10-31T20:36:08;100511.56;;;-0.31;100.00
35045;BME280;21231;48.394;34.964;2022-10-31T20:38:55;100512.13;;;-0.34;100.00
35045;BME280;21231;48.394;34.964;2022-10-31T20:41:42;100509.63;;;-0.25;100.00
35045;BME280;21231;48.394;34.964;2022-10-31T20:44:28;100514.78;;;-0.32;100.00
35045;BME280;21231;48.394;34.964;2022-10-31T20:47:14;100514.25;;;-0.46;100.00
35045;BME280;21231;48.394;34.964;2022-10-31T20:50:00;100516.56;;;-0.56;100.00
35045;BME280;21231;48.394;34.964;2022-10-31T20:52:47;100517.34;;;-0.48;100.00
35045;BME280;21231;48.394;34.964;2022-10-31T20:55:32;100512.03;;;-0.43;100.00
35045;BME280;21231;48.394;34.964;2022-10-31T20:58:18;100516.72;;;-0.54;100.00
35045;BME280;21231;48.394;34.964;2022-10-31T21:01:08;100527.00;;;-0.85;100.00
35045;BME280;21231;48.394;34.964;2022-10-31T21:03:56;100524.56;;;-0.92;100.00
35045;BME280;21231;48.394;34.964;2022-10-31T21:06:43;100528.00;;;-0.92;100.00
35045;BME280;21231;48.394;34.964;2022-10-31T21:09:34;100528.97;;;-0.83;100.00
35045;BME280;21231;48.394;34.964;2022-10-31T21:12:20;100530.28;;;-0.70;100.00
35045;BME280;21231;48.394;34.964;2022-10-31T21:15:09;100539.19;;;-0.58;100.00
35045;BME280;21231;48.394;34.964;2022-10-31T21:17:55;100537.84;;;-0.54;100.00
35045;BME280;21231;48.394;34.964;2022-10-31T21:20:42;100538.44;;;-0.57;100.00
35045;BME280;21231;48.394;34.964;2022-10-31T21:23:29;100538.44;;;-0.57;100.00
35045;BME280;21231;48.394;34.964;2022-10-31T21:26:17;100534.44;;;-0.54;100.00
35045;BME280;21231;48.394;34.964;2022-10-31T21:29:04;100542.47;;;-0.59;100.00
35045;BME280;21231;48.394;34.964;2022-10-31T21:31:51;100551.09;;;-0.57;100.00
35045;BME280;21231;48.394;34.964;2022-10-31T21:34:37;100536.09;;;-0.71;100.00
35045;BME280;21231;48.394;34.964;2022-10-31T21:37:23;100537.97;;;-0.77;100.00
35045;BME280;21231;48.394;34.964;2022-10-31T21:40:09;100529.41;;;-0.71;100.00
35045;BME280;21231;48.394;34.964;2022-10-31T21:42:55;100522.03;;;-0.60;100.00
35045;BME280;21231;48.394;34.964;2022-10-31T21:45:42;100529.41;;;-0.71;100.00
35045;BME280;21231;48.394;34.964;2022-10-31T21:48:27;100537.13;;;-0.85;100.00
35045;BME280;21231;48.394;34.964;2022-10-31T21:51:19;100542.75;;;-1.04;100.00
35045;BME280;21231;48.394;34.964;2022-10-31T21:54:07;100545.56;;;-1.17;100.00
35045;BME280;21231;48.394;34.964;2022-10-31T21:57:12;100548.78;;;-1.11;100.00
35045;BME280;21231;48.394;34.964;2022-10-31T21:59:58;100562.31;;;-1.10;100.00
35045;BME280;21231;48.394;34.964;2022-10-31T22:02:44;100565.28;;;-1.14;100.00
35045;BME280;21231;48.394;34.964;2022-10-31T22:05:29;100554.41;;;-1.13;100.00
35045;BME280;21231;48.394;34.964;2022-10-31T22:08:15;100561.25;;;-1.12;100.00
35045;BME280;21231;48.394;34.964;2022-10-31T22:11:09;100564.53;;;-1.13;100.00
35045;BME280;21231;48.394;34.964;2022-10-31T22:13:58;100567.06;;;-1.13;100.00
35045;BME280;21231;48.394;34.964;2022-10-31T22:16:44;100569.25;;;-1.16;100.00
35045;BME280;21231;48.394;34.964;2022-10-31T22:19:30;100566.84;;;-1.31;100.00
35045;BME280;21231;48.394;34.964;2022-10-31T22:22:16;100561.81;;;-1.31;100.00
35045;BME280;21231;48.394;34.964;2022-10-31T22:25:02;100567.56;;;-1.32;100.00
35045;BME280;21231;48.394;34.964;2022-10-31T22:27:50;100567.31;;;-1.42;100.00
35045;BME280;21231;48.394;34.964;2022-10-31T22:30:37;100566.28;;;-1.52;100.00
35045;BME280;21231;48.394;34.964;2022-10-31T22:33:24;100565.91;;;-1.48;100.00
35045;BME280;21231;48.394;34.964;2022-10-31T22:36:13;100565.84;;;-1.40;100.00
35045;BME280;21231;48.394;34.964;2022-10-31T22:39:00;100569.00;;;-1.27;100.00
35045;BME280;21231;48.394;34.964;2022-10-31T22:41:46;100564.25;;;-1.24;100.00
35045;BME280;21231;48.394;34.964;2022-10-31T22:44:32;100567.81;;;-1.38;100.00
35045;BME280;21231;48.394;34.964;2022-10-31T22:47:17;100555.44;;;-1.51;100.00
35045;BME280;21231;48.394;34.964;2022-10-31T22:50:03;100551.00;;;-1.61;100.00
35045;BME280;21231;48.394;34.964;2022-10-31T22:52:50;100552.13;;;-1.66;100.00
35045;BME280;21231;48.394;34.964;2022-10-31T22:55:36;100556.34;;;-1.74;100.00
35045;BME280;21231;48.394;34.964;2022-10-31T22:58:23;100553.84;;;-1.81;100.00
35045;BME280;21231;48.394;34.964;2022-10-31T23:01:15;100552.66;;;-1.92;100.00
35045;BME280;21231;48.394;34.964;2022-10-31T23:04:01;100550.97;;;-1.84;100.00
35045;BME280;21231;48.394;34.964;2022-10-31T23:06:47;100548.53;;;-1.68;100.00
35045;BME280;21231;48.394;34.964;2022-10-31T23:09:34;100553.47;;;-1.53;100.00
35045;BME280;21231;48.394;34.964;2022-10-31T23:12:20;100548.22;;;-1.48;100.00
35045;BME280;21231;48.394;34.964;2022-10-31T23:15:25;100552.56;;;-1.54;100.00
35045;BME280;21231;48.394;34.964;2022-10-31T23:18:11;100546.59;;;-1.70;100.00
35045;BME280;21231;48.394;34.964;2022-10-31T23:21:17;100545.81;;;-1.93;100.00
35045;BME280;21231;48.394;34.964;2022-10-31T23:24:23;100545.34;;;-2.05;100.00
35045;BME280;21231;48.394;34.964;2022-10-31T23:27:11;100539.22;;;-2.07;100.00
35045;BME280;21231;48.394;34.964;2022-10-31T23:29:57;100548.00;;;-1.96;100.00
35045;BME280;21231;48.394;34.964;2022-10-31T23:32:44;100546.03;;;-1.99;100.00
35045;BME280;21231;48.394;34.964;2022-10-31T23:35:30;100544.59;;;-1.96;100.00
35045;BME280;21231;48.394;34.964;2022-10-31T23:38:15;100544.72;;;-1.95;100.00
35045;BME280;21231;48.394;34.964;2022-10-31T23:41:02;100540.19;;;-1.90;100.00
35045;BME280;21231;48.394;34.964;2022-10-31T23:43:48;100543.97;;;-1.87;100.00
35045;BME280;21231;48.394;34.964;2022-10-31T23:46:34;100540.97;;;-1.99;100.00
35045;BME280;21231;48.394;34.964;2022-10-31T23:49:20;100543.38;;;-2.07;100.00
35045;BME280;21231;48.394;34.964;2022-10-31T23:52:06;100542.59;;;-2.30;100.00
35045;BME280;21231;48.394;34.964;2022-10-31T23:54:52;100536.81;;;-2.29;100.00
35045;BME280;21231;48.394;34.964;2022-10-31T23:57:38;100545.88;;;-2.38;100.00
